createdAt,value
2019-05-23T00:01:19.533Z,0.40
2019-05-23T00:03:52.610Z,0.30
2019-05-23T00:06:23.682Z,0.40
2019-05-23T00:08:52.966Z,0.53
2019-05-23T00:11:40.602Z,0.45
2019-05-23T00:14:19.980Z,0.40
2019-05-23T00:16:49.067Z,0.40
2019-05-23T00:19:18.556Z,0.40
2019-05-23T00:21:47.112Z,0.42
2019-05-23T00:24:15.686Z,0.50
2019-05-23T00:26:44.894Z,0.50
2019-05-23T00:29:15.042Z,0.40
2019-05-23T00:31:45.444Z,0.50
2019-05-23T00:34:14.644Z,0.55
2019-05-23T00:36:45.849Z,0.75
2019-05-23T00:39:16.059Z,1.20
2019-05-23T00:41:45.968Z,0.70
2019-05-23T00:44:15.010Z,0.80
2019-05-23T00:46:45.347Z,1.02
2019-05-23T00:49:16.027Z,0.72
2019-05-23T00:51:46.428Z,0.50
2019-05-23T00:54:15.854Z,0.50
2019-05-23T00:56:44.483Z,0.50
2019-05-23T00:59:25.997Z,0.40
2019-05-23T01:01:43.845Z,0.50
2019-05-23T01:04:13.248Z,0.50
2019-05-23T01:06:42.499Z,0.68
2019-05-23T01:09:12.013Z,0.80
2019-05-23T01:11:41.010Z,1.65
2019-05-23T01:14:10.045Z,1.20
2019-05-23T01:16:38.913Z,1.15
2019-05-23T01:19:09.190Z,1.00
2019-05-23T01:21:42.422Z,1.20
2019-05-23T01:24:27.711Z,1.32
2019-05-23T01:26:57.250Z,1.32
2019-05-23T01:29:37.120Z,1.35
2019-05-23T01:31:59.100Z,0.75
2019-05-23T01:34:29.350Z,1.07
2019-05-23T01:36:58.899Z,0.93
2019-05-23T01:39:27.558Z,0.93
2019-05-23T01:41:56.542Z,1.60
2019-05-23T01:44:26.460Z,1.70
2019-05-23T01:46:56.100Z,2.22
2019-05-23T01:49:24.798Z,2.30
2019-05-23T01:51:53.933Z,2.55
2019-05-23T01:54:23.003Z,3.47
2019-05-23T01:56:52.410Z,2.10
2019-05-23T01:59:21.086Z,2.40
2019-05-23T02:01:49.767Z,2.50
2019-05-23T02:04:18.916Z,1.82
2019-05-23T02:06:47.885Z,1.42
2019-05-23T02:09:16.922Z,1.80
2019-05-23T02:11:45.500Z,1.87
2019-05-23T02:14:14.534Z,2.00
2019-05-23T02:16:44.573Z,1.85
2019-05-23T02:19:14.482Z,2.42
2019-05-23T02:21:43.164Z,2.02
2019-05-23T02:24:12.036Z,1.67
2019-05-23T02:26:40.972Z,1.67
2019-05-23T02:29:10.213Z,2.12
2019-05-23T02:31:40.368Z,1.75
2019-05-23T02:34:09.275Z,1.85
2019-05-23T02:36:38.492Z,1.60
2019-05-23T02:39:09.694Z,1.80
2019-05-23T02:41:51.739Z,2.75
2019-05-23T02:44:25.047Z,3.00
2019-05-23T02:46:56.521Z,2.10
2019-05-23T02:49:30.957Z,2.52
2019-05-23T02:52:03.073Z,2.40
2019-05-23T02:54:32.285Z,2.27
2019-05-23T02:57:04.129Z,2.02
2019-05-23T02:59:42.149Z,2.27
2019-05-23T03:02:34.915Z,3.05
2019-05-23T03:05:06.955Z,2.90
2019-05-23T03:07:36.001Z,2.87
2019-05-23T03:10:08.926Z,3.65
2019-05-23T03:12:38.819Z,3.83
2019-05-23T03:15:10.988Z,3.27
2019-05-23T03:17:42.981Z,1.42
2019-05-23T03:20:13.476Z,1.30
2019-05-23T03:22:46.386Z,0.80
2019-05-23T03:25:36.761Z,0.78
2019-05-23T03:28:08.278Z,0.75
2019-05-23T03:30:38.838Z,0.80
2019-05-23T03:33:12.307Z,0.80
2019-05-23T03:35:48.564Z,0.82
2019-05-23T03:38:17.126Z,0.72
2019-05-23T03:40:47.476Z,0.60
2019-05-23T03:43:16.070Z,1.30
2019-05-23T03:45:52.265Z,0.80
2019-05-23T03:48:21.571Z,0.90
2019-05-23T03:50:50.770Z,0.60
2019-05-23T03:53:20.905Z,0.85
2019-05-23T03:55:52.514Z,1.35
2019-05-23T03:58:23.238Z,1.40
2019-05-23T04:00:54.088Z,0.75
2019-05-23T04:03:24.615Z,0.80
2019-05-23T04:05:53.629Z,0.72
2019-05-23T04:08:23.679Z,0.90
2019-05-23T04:10:52.789Z,0.90
2019-05-23T04:13:21.689Z,0.80
2019-05-23T04:15:50.256Z,0.88
2019-05-23T04:18:19.171Z,0.80
2019-05-23T04:20:48.343Z,0.60
2019-05-23T04:23:18.251Z,0.72
2019-05-23T04:25:47.029Z,1.10
2019-05-23T04:28:15.846Z,0.70
2019-05-23T04:30:45.070Z,1.15
2019-05-23T04:33:14.016Z,1.87
2019-05-23T04:35:42.649Z,1.57
2019-05-23T04:38:11.599Z,2.00
2019-05-23T04:40:40.295Z,1.10
2019-05-23T04:43:08.937Z,0.90
2019-05-23T04:45:38.449Z,0.70
2019-05-23T04:48:07.727Z,1.22
2019-05-23T04:50:36.536Z,1.05
2019-05-23T04:53:05.532Z,1.05
2019-05-23T04:55:34.143Z,1.45
2019-05-23T04:58:04.853Z,0.90
2019-05-23T05:00:34.065Z,0.90
2019-05-23T05:03:03.549Z,0.80
2019-05-23T05:05:32.134Z,1.15
2019-05-23T05:08:00.834Z,0.55
2019-05-23T05:10:30.954Z,1.02
2019-05-23T05:12:59.877Z,0.50
2019-05-23T05:15:28.617Z,1.30
2019-05-23T05:17:57.294Z,0.95
2019-05-23T05:20:26.114Z,1.47
2019-05-23T05:22:54.707Z,0.78
2019-05-23T05:25:23.413Z,1.92
2019-05-23T05:27:52.065Z,2.02
2019-05-23T05:30:21.379Z,0.82
2019-05-23T05:32:50.170Z,0.70
2019-05-23T05:35:19.018Z,0.50
2019-05-23T05:37:47.667Z,0.50
2019-05-23T05:40:16.501Z,0.55
2019-05-23T05:42:46.098Z,0.50
2019-05-23T05:45:15.465Z,0.75
2019-05-23T05:47:44.135Z,0.53
2019-05-23T05:50:14.411Z,0.50
2019-05-23T05:52:43.277Z,0.40
2019-05-23T05:55:12.407Z,0.40
2019-05-23T05:57:41.034Z,0.30
2019-05-23T06:00:13.513Z,0.40
2019-05-23T06:02:42.114Z,0.50
2019-05-23T06:05:12.997Z,0.50
2019-05-23T06:07:42.421Z,0.40
2019-05-23T06:10:14.321Z,0.42
2019-05-23T06:12:43.123Z,0.40
2019-05-23T06:15:12.444Z,0.40
2019-05-23T06:17:41.793Z,0.40
2019-05-23T06:20:11.935Z,0.80
2019-05-23T06:22:41.852Z,0.20
2019-05-23T06:25:11.981Z,0.40
2019-05-23T06:27:41.056Z,0.40
2019-05-23T06:30:12.705Z,0.40
2019-05-23T06:32:41.337Z,0.40
2019-05-23T06:35:10.249Z,1.02
2019-05-23T06:37:39.805Z,0.60
2019-05-23T06:40:09.338Z,0.50
2019-05-23T06:42:38.646Z,0.30
2019-05-23T06:45:10.540Z,0.50
2019-05-23T06:47:39.820Z,0.85
2019-05-23T06:50:15.978Z,0.40
2019-05-23T06:52:44.723Z,0.40
2019-05-23T06:55:13.357Z,0.40
2019-05-23T06:57:42.137Z,0.40
2019-05-23T07:00:11.294Z,0.45
2019-05-23T07:02:40.511Z,0.50
2019-05-23T07:05:09.400Z,0.50
2019-05-23T07:07:38.854Z,0.60
2019-05-23T07:10:09.202Z,0.50
2019-05-23T07:12:37.878Z,0.60
2019-05-23T07:15:07.753Z,0.60
2019-05-23T07:17:36.627Z,0.50
2019-05-23T07:20:06.843Z,0.50
2019-05-23T07:22:35.750Z,0.50
2019-05-23T07:25:07.001Z,0.60
2019-05-23T07:27:35.944Z,0.62
2019-05-23T07:30:10.239Z,0.50
2019-05-23T07:32:39.028Z,0.50
2019-05-23T07:35:07.674Z,0.70
2019-05-23T07:37:36.228Z,0.70
2019-05-23T07:40:06.372Z,0.62
2019-05-23T07:42:35.112Z,0.68
2019-05-23T07:45:07.031Z,0.70
2019-05-23T07:47:39.463Z,0.40
2019-05-23T07:50:07.018Z,0.60
2019-05-23T07:52:35.844Z,0.60
2019-05-23T07:55:24.974Z,0.50
2019-05-23T07:57:54.264Z,0.70
2019-05-23T08:00:29.258Z,0.80
2019-05-23T08:03:03.525Z,0.90
2019-05-23T08:05:32.806Z,1.35
2019-05-23T08:08:01.413Z,0.95
2019-05-23T08:10:33.746Z,0.70
2019-05-23T08:13:00.887Z,0.60
2019-05-23T08:15:30.657Z,0.50
2019-05-23T08:17:59.273Z,0.60
2019-05-23T08:20:27.959Z,0.82
2019-05-23T08:22:56.603Z,0.50
2019-05-23T08:25:25.380Z,0.80
2019-05-23T08:27:54.838Z,0.70
2019-05-23T08:30:24.366Z,0.50
2019-05-23T08:32:52.891Z,0.70
2019-05-23T08:35:22.008Z,0.60
2019-05-23T08:37:50.659Z,0.82
2019-05-23T08:40:19.837Z,0.80
2019-05-23T08:42:48.472Z,0.70
2019-05-23T08:45:18.996Z,0.80
2019-05-23T08:47:47.653Z,1.10
2019-05-23T08:50:17.063Z,1.90
2019-05-23T08:52:45.802Z,0.70
2019-05-23T08:55:23.289Z,0.60
2019-05-23T08:57:53.901Z,0.53
2019-05-23T09:00:24.683Z,0.60
2019-05-23T09:02:58.244Z,0.70
2019-05-23T09:05:29.445Z,0.72
2019-05-23T09:07:58.016Z,0.78
2019-05-23T09:10:27.795Z,0.98
2019-05-23T09:12:56.513Z,0.80
2019-05-23T09:15:25.197Z,0.50
2019-05-23T09:17:54.397Z,0.50
2019-05-23T09:20:23.120Z,0.60
2019-05-23T09:22:52.067Z,0.70
2019-05-23T09:25:20.711Z,0.50
2019-05-23T09:27:51.164Z,0.40
2019-05-23T09:30:20.499Z,0.50
2019-05-23T09:32:49.141Z,0.40
2019-05-23T09:35:21.322Z,0.50
2019-05-23T09:37:48.551Z,0.50
2019-05-23T09:40:17.998Z,0.40
2019-05-23T09:42:46.620Z,0.45
2019-05-23T09:45:16.387Z,0.65
2019-05-23T09:47:45.117Z,0.40
2019-05-23T09:50:17.977Z,0.40
2019-05-23T09:52:47.010Z,0.40
2019-05-23T09:55:16.267Z,0.35
2019-05-23T09:57:44.909Z,0.40
2019-05-23T10:00:19.810Z,0.40
2019-05-23T10:02:48.377Z,0.30
2019-05-23T10:05:17.786Z,0.30
2019-05-23T10:07:46.449Z,0.30
2019-05-23T10:10:17.428Z,0.30
2019-05-23T10:12:46.062Z,0.40
2019-05-23T10:15:32.704Z,0.30
2019-05-23T10:18:17.406Z,0.40
2019-05-23T10:20:46.077Z,0.40
2019-05-23T10:23:14.712Z,0.40
2019-05-23T10:25:43.330Z,0.70
2019-05-23T10:28:12.011Z,0.30
2019-05-23T10:30:40.785Z,0.40
2019-05-23T10:33:12.765Z,1.10
2019-05-23T10:35:40.221Z,0.30
2019-05-23T10:38:08.791Z,0.35
2019-05-23T10:40:38.332Z,0.30
2019-05-23T10:43:07.401Z,0.40
2019-05-23T10:45:36.360Z,0.30
2019-05-23T10:48:07.003Z,0.40
2019-05-23T10:50:44.869Z,0.30
2019-05-23T10:53:06.432Z,0.40
2019-05-23T10:55:35.102Z,0.30
2019-05-23T10:58:04.622Z,0.20
2019-05-23T11:00:34.582Z,0.60
2019-05-23T11:03:03.487Z,0.20
2019-05-23T11:05:32.153Z,0.40
2019-05-23T11:08:02.817Z,0.30
2019-05-23T11:10:31.978Z,0.20
2019-05-23T11:13:00.476Z,0.20
2019-05-23T11:15:29.150Z,0.23
2019-05-23T11:17:57.847Z,0.30
2019-05-23T11:20:26.944Z,0.28
2019-05-23T11:22:55.565Z,0.20
2019-05-23T11:25:24.739Z,0.10
2019-05-23T11:27:53.465Z,0.20
2019-05-23T11:30:28.475Z,0.13
2019-05-23T11:32:57.247Z,0.20
2019-05-23T11:35:26.291Z,0.20
2019-05-23T11:37:55.154Z,0.17
2019-05-23T11:40:23.794Z,0.20
2019-05-23T11:42:53.041Z,0.10
2019-05-23T11:45:24.147Z,0.28
2019-05-23T11:47:52.696Z,0.20
2019-05-23T11:50:21.354Z,0.20
2019-05-23T11:52:50.033Z,0.20
2019-05-23T11:55:18.870Z,0.20
2019-05-23T11:57:47.392Z,0.30
2019-05-23T12:00:18.726Z,0.40
2019-05-23T12:02:48.276Z,0.25
2019-05-23T12:05:19.062Z,0.25
2019-05-23T12:07:48.130Z,0.20
2019-05-23T12:10:17.336Z,0.30
2019-05-23T12:12:45.978Z,0.20
2019-05-23T12:15:16.691Z,0.30
2019-05-23T12:17:45.753Z,0.20
2019-05-23T12:20:14.591Z,0.40
2019-05-23T12:22:43.799Z,0.30
2019-05-23T12:25:21.732Z,0.30
2019-05-23T12:27:44.538Z,0.20
2019-05-23T12:30:15.462Z,0.40
2019-05-23T12:32:44.023Z,0.40
2019-05-23T12:35:12.971Z,0.30
2019-05-23T12:37:41.728Z,0.40
2019-05-23T12:40:12.696Z,0.60
2019-05-23T12:42:41.367Z,0.40
2019-05-23T12:45:10.934Z,0.45
2019-05-23T12:47:56.185Z,0.40
2019-05-23T12:50:26.502Z,0.53
2019-05-23T12:52:55.092Z,0.40
2019-05-23T12:55:23.656Z,0.40
2019-05-23T12:57:52.345Z,0.40
2019-05-23T13:00:28.879Z,0.30
2019-05-23T13:02:57.640Z,0.50
2019-05-23T13:05:26.589Z,0.40
2019-05-23T13:07:55.356Z,0.60
2019-05-23T13:10:25.215Z,0.40
2019-05-23T13:12:54.241Z,0.40
2019-05-23T13:15:23.362Z,0.40
2019-05-23T13:17:52.080Z,0.40
2019-05-23T13:20:20.904Z,0.50
2019-05-23T13:22:49.472Z,0.40
2019-05-23T13:25:18.313Z,0.50
2019-05-23T13:27:47.130Z,0.40
2019-05-23T13:30:15.869Z,0.40
2019-05-23T13:32:44.585Z,0.50
2019-05-23T13:35:13.716Z,0.50
2019-05-23T13:37:53.111Z,0.50
2019-05-23T13:40:14.681Z,0.50
2019-05-23T13:42:43.587Z,0.60
2019-05-23T13:45:12.663Z,0.60
2019-05-23T13:47:41.167Z,0.50
2019-05-23T13:50:10.004Z,0.60
2019-05-23T13:52:38.740Z,0.80
2019-05-23T13:55:08.276Z,0.50
2019-05-23T13:57:37.389Z,0.70
2019-05-23T14:00:10.104Z,0.70
2019-05-23T14:02:38.902Z,0.50
2019-05-23T14:05:08.803Z,0.65
2019-05-23T14:07:38.744Z,0.50
2019-05-23T14:10:10.086Z,0.42
2019-05-23T14:12:39.284Z,0.40
2019-05-23T14:15:10.796Z,0.50
2019-05-23T14:17:45.452Z,0.47
2019-05-23T14:20:16.129Z,0.70
2019-05-23T14:22:59.122Z,0.60
2019-05-23T14:25:27.836Z,0.50
2019-05-23T14:28:01.017Z,0.50
2019-05-23T14:30:46.251Z,0.70
2019-05-23T14:33:16.653Z,0.62
2019-05-23T14:35:49.911Z,0.53
2019-05-23T14:38:30.184Z,0.60
2019-05-23T14:40:49.260Z,0.70
2019-05-23T14:43:25.701Z,0.90
2019-05-23T14:46:01.674Z,0.50
2019-05-23T14:48:32.170Z,0.85
2019-05-23T14:51:11.535Z,0.60
2019-05-23T14:53:59.954Z,0.90
2019-05-23T14:56:30.763Z,0.60
2019-05-23T14:58:59.512Z,0.60
2019-05-23T15:01:29.930Z,0.50
2019-05-23T15:03:58.565Z,0.50
2019-05-23T15:06:27.322Z,0.62
2019-05-23T15:08:55.984Z,0.70
2019-05-23T15:11:24.775Z,0.65
2019-05-23T15:13:53.744Z,0.60
2019-05-23T15:16:23.196Z,0.68
2019-05-23T15:18:51.859Z,0.70
2019-05-23T15:21:20.433Z,0.60
2019-05-23T15:23:49.089Z,0.60
2019-05-23T15:26:23.008Z,0.78
2019-05-23T15:28:47.957Z,0.80
2019-05-23T15:31:16.820Z,0.90
2019-05-23T15:33:45.845Z,1.35
2019-05-23T15:36:14.931Z,0.78
2019-05-23T15:38:43.498Z,1.00
2019-05-23T15:41:12.331Z,0.78
2019-05-23T15:43:40.867Z,0.80
2019-05-23T15:46:09.620Z,0.85
2019-05-23T15:48:38.759Z,1.35
2019-05-23T15:51:09.124Z,0.80
2019-05-23T15:53:48.363Z,0.90
2019-05-23T15:56:28.942Z,0.80
2019-05-23T15:59:11.425Z,0.75
2019-05-23T16:01:44.525Z,0.90
2019-05-23T16:04:14.997Z,1.10
2019-05-23T16:06:43.844Z,0.90
2019-05-23T16:09:28.606Z,1.07
2019-05-23T16:11:43.800Z,1.22
2019-05-23T16:14:12.886Z,1.15
2019-05-23T16:16:41.680Z,0.88
2019-05-23T16:19:10.346Z,0.75
2019-05-23T16:21:40.524Z,1.50
2019-05-23T16:24:09.259Z,1.20
2019-05-23T16:26:38.683Z,1.00
2019-05-23T16:29:08.216Z,1.32
2019-05-23T16:31:37.869Z,1.87
2019-05-23T16:34:06.622Z,1.17
2019-05-23T16:36:35.262Z,0.70
2019-05-23T16:39:05.763Z,1.42
2019-05-23T16:41:34.438Z,1.45
2019-05-23T16:44:03.263Z,1.22
2019-05-23T16:46:31.978Z,1.27
2019-05-23T16:49:00.595Z,1.80
2019-05-23T16:51:29.206Z,0.90
2019-05-23T16:53:58.463Z,1.50
2019-05-23T16:56:46.827Z,1.02
2019-05-23T16:59:19.839Z,1.60
2019-05-23T17:02:06.417Z,1.80
2019-05-23T17:04:42.748Z,1.70
2019-05-23T17:07:12.869Z,2.37
2019-05-23T17:10:06.126Z,2.08
2019-05-23T17:12:21.148Z,1.80
2019-05-23T17:14:59.743Z,2.80
2019-05-23T17:17:56.686Z,12.68
2019-05-23T17:20:18.642Z,4.22
2019-05-23T17:22:54.896Z,2.75
2019-05-23T17:25:41.364Z,3.20
2019-05-23T17:28:15.064Z,2.45
2019-05-23T17:30:45.329Z,3.17
2019-05-23T17:33:14.229Z,2.92
2019-05-23T17:35:42.851Z,2.83
2019-05-23T17:38:11.431Z,2.90
2019-05-23T17:40:40.043Z,3.60
2019-05-23T17:43:09.000Z,3.20
2019-05-23T17:45:37.931Z,3.20
2019-05-23T17:48:06.603Z,2.55
2019-05-23T17:50:35.335Z,3.60
2019-05-23T17:53:04.174Z,3.47
2019-05-23T17:55:33.515Z,2.55
2019-05-23T17:58:02.454Z,3.45
2019-05-23T18:00:35.866Z,3.10
2019-05-23T18:03:04.484Z,4.15
2019-05-23T18:05:33.823Z,4.90
2019-05-23T18:08:03.287Z,4.80
2019-05-23T18:10:43.990Z,3.92
2019-05-23T18:13:03.460Z,3.83
2019-05-23T18:15:32.796Z,3.75
2019-05-23T18:18:02.127Z,3.33
2019-05-23T18:20:31.694Z,3.77
2019-05-23T18:23:00.571Z,3.55
2019-05-23T18:25:30.022Z,3.33
2019-05-23T18:27:59.354Z,3.65
2019-05-23T18:30:33.178Z,3.52
2019-05-23T18:33:02.210Z,3.80
2019-05-23T18:35:31.073Z,3.55
2019-05-23T18:38:00.422Z,4.97
2019-05-23T18:40:29.162Z,4.10
2019-05-23T18:42:57.984Z,4.15
2019-05-23T18:45:28.327Z,7.35
2019-05-23T18:47:57.354Z,5.72
2019-05-23T18:50:26.498Z,5.35
2019-05-23T18:52:55.110Z,4.83
2019-05-23T18:55:24.397Z,7.08
2019-05-23T18:57:53.275Z,5.83
2019-05-23T19:00:24.867Z,4.15
2019-05-23T19:02:54.575Z,3.52
2019-05-23T19:05:26.738Z,4.28
2019-05-23T19:07:53.904Z,3.72
2019-05-23T19:10:22.839Z,4.35
2019-05-23T19:12:51.780Z,4.47
2019-05-23T19:15:20.527Z,3.87
2019-05-23T19:17:49.526Z,4.40
2019-05-23T19:20:18.568Z,5.62
2019-05-23T19:22:47.347Z,4.42
2019-05-23T19:25:16.379Z,4.37
2019-05-23T19:27:46.114Z,4.92
2019-05-23T19:30:14.927Z,5.30
2019-05-23T19:32:43.928Z,4.83
2019-05-23T19:35:13.141Z,5.33
2019-05-23T19:37:42.118Z,4.40
2019-05-23T19:40:12.833Z,4.40
2019-05-23T19:42:41.321Z,4.87
2019-05-23T19:45:11.826Z,4.22
2019-05-23T19:47:40.487Z,4.65
2019-05-23T19:50:09.689Z,5.80
2019-05-23T19:52:38.292Z,5.97
2019-05-23T19:55:07.828Z,4.75
2019-05-23T19:57:38.100Z,5.42
2019-05-23T20:00:09.261Z,4.42
2019-05-23T20:02:52.323Z,4.20
2019-05-23T20:05:25.621Z,3.98
2019-05-23T20:07:54.255Z,3.45
2019-05-23T20:10:23.981Z,3.75
2019-05-23T20:12:52.590Z,3.50
2019-05-23T20:15:22.462Z,3.47
2019-05-23T20:17:52.206Z,3.83
2019-05-23T20:20:20.982Z,3.70
2019-05-23T20:22:49.743Z,3.85
2019-05-23T20:25:18.590Z,4.37
2019-05-23T20:27:47.340Z,3.00
2019-05-23T20:30:35.769Z,3.27
2019-05-23T20:33:04.445Z,3.25
2019-05-23T20:35:32.996Z,3.08
2019-05-23T20:38:01.542Z,2.90
2019-05-23T20:40:30.677Z,3.58
2019-05-23T20:43:02.449Z,2.85
2019-05-23T20:45:29.804Z,3.12
2019-05-23T20:47:58.758Z,3.10
2019-05-23T20:50:27.378Z,3.60
2019-05-23T20:52:56.012Z,3.67
2019-05-23T20:55:24.765Z,3.75
2019-05-23T20:57:53.421Z,3.50
2019-05-23T21:00:36.127Z,3.35
2019-05-23T21:03:05.026Z,3.95
2019-05-23T21:05:33.712Z,2.98
2019-05-23T21:08:02.355Z,2.95
2019-05-23T21:10:42.835Z,2.92
2019-05-23T21:13:11.504Z,2.47
2019-05-23T21:15:40.966Z,4.97
2019-05-23T21:18:09.955Z,3.15
2019-05-23T21:20:38.562Z,2.60
2019-05-23T21:23:07.202Z,2.90
2019-05-23T21:25:37.490Z,3.12
2019-05-23T21:28:06.236Z,3.15
2019-05-23T21:30:35.469Z,3.00
2019-05-23T21:33:05.194Z,2.90
2019-05-23T21:35:34.048Z,3.40
2019-05-23T21:38:02.838Z,3.00
2019-05-23T21:40:34.399Z,3.40
2019-05-23T21:43:03.372Z,3.25
2019-05-23T21:45:31.925Z,3.75
2019-05-23T21:48:00.458Z,4.40
2019-05-23T21:50:29.112Z,3.87
2019-05-23T21:52:57.857Z,3.90
2019-05-23T21:55:37.063Z,3.55
2019-05-23T21:58:06.616Z,3.70
2019-05-23T22:01:06.979Z,4.53
2019-05-23T22:03:44.668Z,4.25
2019-05-23T22:06:14.987Z,4.20
2019-05-23T22:08:44.119Z,4.42
2019-05-23T22:11:13.718Z,4.60
2019-05-23T22:13:42.391Z,4.25
2019-05-23T22:16:11.085Z,4.10
2019-05-23T22:18:39.763Z,4.30
2019-05-23T22:21:08.593Z,3.65
2019-05-23T22:23:37.636Z,4.12
2019-05-23T22:26:06.768Z,4.00
2019-05-23T22:28:35.580Z,4.03
2019-05-23T22:31:04.260Z,4.22
2019-05-23T22:33:34.781Z,3.77
2019-05-23T22:36:03.880Z,3.67
2019-05-23T22:38:32.499Z,3.65
2019-05-23T22:41:01.183Z,3.27
2019-05-23T22:43:29.900Z,3.85
2019-05-23T22:45:58.679Z,3.45
2019-05-23T22:48:27.355Z,4.03
2019-05-23T22:50:56.093Z,3.15
2019-05-23T22:53:24.703Z,2.92
2019-05-23T22:55:53.384Z,3.37
2019-05-23T22:58:22.172Z,2.85
2019-05-23T23:00:51.138Z,2.75
2019-05-23T23:03:19.723Z,2.75
2019-05-23T23:05:48.375Z,3.12
2019-05-23T23:08:17.646Z,3.17
2019-05-23T23:10:46.320Z,3.10
2019-05-23T23:13:15.129Z,2.65
2019-05-23T23:15:43.948Z,2.62
2019-05-23T23:18:12.478Z,2.85
2019-05-23T23:20:41.172Z,3.00
2019-05-23T23:23:09.779Z,2.20
2019-05-23T23:25:38.412Z,2.30
2019-05-23T23:28:07.096Z,2.30
2019-05-23T23:30:43.208Z,2.55
2019-05-23T23:33:11.774Z,2.45
2019-05-23T23:35:40.413Z,2.12
2019-05-23T23:38:10.134Z,2.35
2019-05-23T23:40:38.761Z,3.12
2019-05-23T23:43:07.418Z,1.92
2019-05-23T23:45:54.103Z,2.50
2019-05-23T23:48:40.617Z,2.17
2019-05-23T23:51:27.075Z,2.02
2019-05-23T23:54:13.505Z,2.17
2019-05-23T23:57:00.185Z,1.90
2019-05-23T23:59:28.097Z,2.20
